createdAt,value
2017-11-05T00:01:31.420Z,8.10
2017-11-05T00:03:59.797Z,8.20
2017-11-05T00:06:27.352Z,8.20
2017-11-05T00:08:55.676Z,8.30
2017-11-05T00:11:23.232Z,8.30
2017-11-05T00:13:51.547Z,8.50
2017-11-05T00:16:19.137Z,8.20
2017-11-05T00:18:47.513Z,8.10
2017-11-05T00:21:15.090Z,8.20
2017-11-05T00:23:42.641Z,8.20
2017-11-05T00:26:10.279Z,8.00
2017-11-05T00:28:37.826Z,8.20
2017-11-05T00:31:05.363Z,7.90
2017-11-05T00:33:32.941Z,8.20
2017-11-05T00:36:00.494Z,8.00
2017-11-05T00:38:28.032Z,8.10
2017-11-05T00:40:55.607Z,8.10
2017-11-05T00:43:23.937Z,8.20
2017-11-05T00:45:51.494Z,8.30
2017-11-05T00:48:19.053Z,8.20
2017-11-05T00:50:47.361Z,8.20
2017-11-05T00:53:14.900Z,8.10
2017-11-05T00:55:42.460Z,8.40
2017-11-05T00:58:09.983Z,8.50
2017-11-05T01:00:37.555Z,8.30
2017-11-05T01:03:05.111Z,8.10
2017-11-05T01:05:32.656Z,8.00
2017-11-05T01:08:00.199Z,8.20
2017-11-05T01:10:27.766Z,8.20
2017-11-05T01:12:55.296Z,8.20
2017-11-05T01:15:22.822Z,8.00
2017-11-05T01:17:50.377Z,8.10
2017-11-05T01:20:17.912Z,8.20
2017-11-05T01:22:45.454Z,8.20
2017-11-05T01:25:13.018Z,8.20
2017-11-05T01:27:40.549Z,8.30
2017-11-05T01:30:08.089Z,8.20
2017-11-05T01:32:35.625Z,8.10
2017-11-05T01:35:03.145Z,8.20
2017-11-05T01:37:30.677Z,8.30
2017-11-05T01:39:58.227Z,8.40
2017-11-05T01:42:25.754Z,8.40
2017-11-05T01:44:53.298Z,8.40
2017-11-05T01:47:21.860Z,8.40
2017-11-05T01:49:50.165Z,8.30
2017-11-05T01:52:17.696Z,8.50
2017-11-05T01:54:45.258Z,8.30
2017-11-05T01:57:15.301Z,8.50
2017-11-05T01:59:44.226Z,8.20
2017-11-05T02:02:13.864Z,8.50
2017-11-05T02:04:44.351Z,8.60
2017-11-05T02:07:11.881Z,8.50
2017-11-05T02:09:39.443Z,8.50
2017-11-05T02:12:06.995Z,8.40
2017-11-05T02:14:34.560Z,8.20
2017-11-05T02:17:02.116Z,8.30
2017-11-05T02:19:29.661Z,8.20
2017-11-05T02:21:57.192Z,8.30
2017-11-05T02:24:24.773Z,8.30
2017-11-05T02:26:53.077Z,8.40
2017-11-05T02:29:20.614Z,8.20
2017-11-05T02:31:48.171Z,8.20
2017-11-05T02:34:15.707Z,8.40
2017-11-05T02:36:43.246Z,8.70
2017-11-05T02:39:10.798Z,8.50
2017-11-05T02:41:38.347Z,8.50
2017-11-05T02:44:05.883Z,8.20
2017-11-05T02:46:33.427Z,8.30
2017-11-05T02:49:01.001Z,8.50
2017-11-05T02:51:28.523Z,8.50
2017-11-05T02:53:56.079Z,8.60
2017-11-05T02:56:23.622Z,8.60
2017-11-05T02:58:51.159Z,8.80
2017-11-05T03:01:25.304Z,8.60
2017-11-05T03:03:55.995Z,8.60
2017-11-05T03:06:23.516Z,8.70
2017-11-05T03:08:51.080Z,8.60
2017-11-05T03:11:18.628Z,8.60
2017-11-05T03:13:46.162Z,8.60
2017-11-05T03:16:13.715Z,8.80
2017-11-05T03:18:41.264Z,8.80
2017-11-05T03:21:08.826Z,9.10
2017-11-05T03:23:37.165Z,8.80
2017-11-05T03:26:04.699Z,9.30
2017-11-05T03:28:32.224Z,8.90
2017-11-05T03:30:59.812Z,8.90
2017-11-05T03:33:28.122Z,9.10
2017-11-05T03:35:56.431Z,9.10
2017-11-05T03:38:27.249Z,9.10
2017-11-05T03:40:54.772Z,9.20
2017-11-05T03:43:22.308Z,9.40
2017-11-05T03:45:49.887Z,9.30
2017-11-05T03:48:18.275Z,9.20
2017-11-05T03:50:46.576Z,9.40
2017-11-05T03:53:14.138Z,9.30
2017-11-05T03:55:41.663Z,9.30
2017-11-05T03:58:09.191Z,9.20
2017-11-05T04:00:36.786Z,9.30
2017-11-05T04:03:04.318Z,9.30
2017-11-05T04:05:31.849Z,9.20
2017-11-05T04:07:59.515Z,9.20
2017-11-05T04:10:27.051Z,9.50
2017-11-05T04:12:54.595Z,9.20
2017-11-05T04:15:22.175Z,9.40
2017-11-05T04:17:50.485Z,9.60
2017-11-05T04:20:18.025Z,9.20
2017-11-05T04:22:48.250Z,9.50
2017-11-05T04:25:15.835Z,9.50
2017-11-05T04:27:44.144Z,9.50
2017-11-05T04:30:11.756Z,9.70
2017-11-05T04:32:40.168Z,9.50
2017-11-05T04:35:12.214Z,9.50
2017-11-05T04:37:42.655Z,9.90
2017-11-05T04:40:10.233Z,9.50
2017-11-05T04:42:37.796Z,9.80
2017-11-05T04:45:05.346Z,9.60
2017-11-05T04:47:32.870Z,9.50
2017-11-05T04:50:00.464Z,9.60
2017-11-05T04:52:28.234Z,9.80
2017-11-05T04:54:56.643Z,9.50
2017-11-05T04:57:24.275Z,9.60
2017-11-05T04:59:51.864Z,9.80
2017-11-05T05:02:19.399Z,9.80
2017-11-05T05:04:46.960Z,9.60
2017-11-05T05:07:14.502Z,9.70
2017-11-05T05:09:42.032Z,9.50
2017-11-05T05:12:09.595Z,9.90
2017-11-05T05:14:37.129Z,9.70
2017-11-05T05:17:06.387Z,10.10
2017-11-05T05:19:34.038Z,10.00
2017-11-05T05:22:01.578Z,10.30
2017-11-05T05:24:29.107Z,10.10
2017-11-05T05:26:56.670Z,10.30
2017-11-05T05:29:24.232Z,10.20
2017-11-05T05:31:51.784Z,10.40
2017-11-05T05:34:19.337Z,10.00
2017-11-05T05:36:46.867Z,10.10
2017-11-05T05:39:14.395Z,10.40
2017-11-05T05:41:41.958Z,10.40
2017-11-05T05:44:09.514Z,10.40
2017-11-05T05:46:37.052Z,10.30
2017-11-05T05:49:04.620Z,10.60
2017-11-05T05:51:32.183Z,10.70
2017-11-05T05:54:00.509Z,10.70
2017-11-05T05:56:28.086Z,10.50
2017-11-05T05:59:00.386Z,10.80
2017-11-05T06:01:30.698Z,10.40
2017-11-05T06:04:00.734Z,10.80
2017-11-05T06:06:30.685Z,10.60
2017-11-05T06:08:58.672Z,10.70
2017-11-05T06:11:26.215Z,10.70
2017-11-05T06:13:54.408Z,10.70
2017-11-05T06:16:22.823Z,10.60
2017-11-05T06:18:50.404Z,10.60
2017-11-05T06:21:18.007Z,10.80
2017-11-05T06:23:45.552Z,10.70
2017-11-05T06:26:13.119Z,10.60
2017-11-05T06:28:40.691Z,10.60
2017-11-05T06:31:08.241Z,10.80
2017-11-05T06:33:35.792Z,10.80
2017-11-05T06:36:04.123Z,10.70
2017-11-05T06:38:31.673Z,10.70
2017-11-05T06:40:59.233Z,10.70
2017-11-05T06:43:27.571Z,10.80
2017-11-05T06:45:55.108Z,10.80
2017-11-05T06:48:22.668Z,10.80
2017-11-05T06:50:50.241Z,10.70
2017-11-05T06:53:17.820Z,10.80
2017-11-05T06:55:45.376Z,11.10
2017-11-05T06:58:12.975Z,10.90
2017-11-05T07:00:41.371Z,10.80
2017-11-05T07:03:08.999Z,10.80
2017-11-05T07:05:36.668Z,10.90
2017-11-05T07:08:04.260Z,10.80
2017-11-05T07:10:31.804Z,10.20
2017-11-05T07:12:59.459Z,10.70
2017-11-05T07:15:27.083Z,10.50
2017-11-05T07:17:54.713Z,11.00
2017-11-05T07:20:23.373Z,11.00
2017-11-05T07:22:51.170Z,11.00
2017-11-05T07:25:18.797Z,10.90
2017-11-05T07:27:46.490Z,11.10
2017-11-05T07:30:15.310Z,11.00
2017-11-05T07:32:43.298Z,11.10
2017-11-05T07:35:10.944Z,10.80
2017-11-05T07:37:39.330Z,11.00
2017-11-05T07:40:06.956Z,10.80
2017-11-05T07:42:34.518Z,10.80
2017-11-05T07:45:03.339Z,11.10
2017-11-05T07:47:31.079Z,11.00
2017-11-05T07:49:58.642Z,10.90
2017-11-05T07:52:26.270Z,11.10
2017-11-05T07:54:53.946Z,11.10
2017-11-05T07:57:21.564Z,10.80
2017-11-05T07:59:49.180Z,11.00
2017-11-05T08:02:16.869Z,10.90
2017-11-05T08:04:44.533Z,11.10
2017-11-05T08:07:12.132Z,11.00
2017-11-05T08:09:39.685Z,10.90
2017-11-05T08:12:07.256Z,11.00
2017-11-05T08:14:34.841Z,11.00
2017-11-05T08:17:02.493Z,11.00
2017-11-05T08:19:30.916Z,11.10
2017-11-05T08:21:58.590Z,11.00
2017-11-05T08:24:26.169Z,11.10
2017-11-05T08:26:53.731Z,11.10
2017-11-05T08:29:21.322Z,11.00
2017-11-05T08:31:48.865Z,10.90
2017-11-05T08:34:16.426Z,11.10
2017-11-05T08:36:45.351Z,11.10
2017-11-05T08:39:13.207Z,10.80
2017-11-05T08:41:40.964Z,11.20
2017-11-05T08:44:08.628Z,11.10
2017-11-05T08:46:36.157Z,10.70
2017-11-05T08:49:03.708Z,10.70
2017-11-05T08:51:31.302Z,10.80
2017-11-05T08:53:59.607Z,10.80
2017-11-05T08:56:27.224Z,10.60
2017-11-05T08:58:54.758Z,10.60
2017-11-05T09:01:23.136Z,10.60
2017-11-05T09:03:50.681Z,10.50
2017-11-05T09:06:18.198Z,10.50
2017-11-05T09:08:45.759Z,10.30
2017-11-05T09:11:13.331Z,10.50
2017-11-05T09:13:40.875Z,10.40
2017-11-05T09:16:08.400Z,10.20
2017-11-05T09:18:35.962Z,10.40
2017-11-05T09:21:03.509Z,10.00
2017-11-05T09:23:31.042Z,10.40
2017-11-05T09:25:58.601Z,10.20
2017-11-05T09:28:26.153Z,10.10
2017-11-05T09:30:53.958Z,9.80
2017-11-05T09:33:22.452Z,9.90
2017-11-05T09:35:49.988Z,10.10
2017-11-05T09:38:17.519Z,9.80
2017-11-05T09:40:45.089Z,10.10
2017-11-05T09:43:12.645Z,9.90
2017-11-05T09:45:40.161Z,9.80
2017-11-05T09:48:07.720Z,10.00
2017-11-05T09:50:35.232Z,9.90
2017-11-05T09:53:03.553Z,10.00
2017-11-05T09:55:31.125Z,9.80
2017-11-05T09:57:59.102Z,10.10
2017-11-05T10:00:26.714Z,9.70
2017-11-05T10:02:54.282Z,9.60
2017-11-05T10:05:22.040Z,9.60
2017-11-05T10:07:50.715Z,9.90
2017-11-05T10:10:18.552Z,9.80
2017-11-05T10:12:47.784Z,9.70
2017-11-05T10:15:15.972Z,9.50
2017-11-05T10:17:44.510Z,9.90
2017-11-05T10:20:12.061Z,9.60
2017-11-05T10:22:39.961Z,9.50
2017-11-05T10:25:21.368Z,9.80
2017-11-05T10:27:49.256Z,9.80
2017-11-05T10:30:27.747Z,9.90
2017-11-05T10:32:56.224Z,9.70
2017-11-05T10:35:25.706Z,9.80
2017-11-05T10:37:53.809Z,9.90
2017-11-05T10:40:22.575Z,9.70
2017-11-05T10:42:50.965Z,9.80
2017-11-05T10:45:20.184Z,9.50
2017-11-05T10:47:48.064Z,9.50
2017-11-05T10:50:16.797Z,9.70
2017-11-05T10:52:48.614Z,9.90
2017-11-05T10:55:17.736Z,9.50
2017-11-05T10:57:45.699Z,9.90
2017-11-05T11:00:15.556Z,9.70
2017-11-05T11:02:44.022Z,10.10
2017-11-05T11:05:11.594Z,10.10
2017-11-05T11:07:40.259Z,10.00
2017-11-05T11:10:07.989Z,10.20
2017-11-05T11:12:36.448Z,10.10
2017-11-05T11:15:03.981Z,9.90
2017-11-05T11:17:33.919Z,9.90
2017-11-05T11:20:01.687Z,9.80
2017-11-05T11:22:29.236Z,9.90
2017-11-05T11:24:59.144Z,9.90
2017-11-05T11:27:28.394Z,9.70
2017-11-05T11:29:56.722Z,10.00
2017-11-05T11:32:24.415Z,9.80
2017-11-05T11:34:51.977Z,9.90
2017-11-05T11:37:19.510Z,10.10
2017-11-05T11:39:47.763Z,9.90
2017-11-05T11:42:15.435Z,9.80
2017-11-05T11:44:43.743Z,10.10
2017-11-05T11:47:11.265Z,9.80
2017-11-05T11:49:39.270Z,9.80
2017-11-05T11:52:06.787Z,9.80
2017-11-05T11:54:34.378Z,9.70
2017-11-05T11:57:01.922Z,9.80
2017-11-05T11:59:29.429Z,9.80
2017-11-05T12:01:56.966Z,9.80
2017-11-05T12:04:24.533Z,9.90
2017-11-05T12:06:52.066Z,10.20
2017-11-05T12:09:19.595Z,10.00
2017-11-05T12:11:47.159Z,10.00
2017-11-05T12:14:14.693Z,9.50
2017-11-05T12:16:42.211Z,9.70
2017-11-05T12:19:09.769Z,9.50
2017-11-05T12:21:37.311Z,9.50
2017-11-05T12:24:04.833Z,9.60
2017-11-05T12:26:33.163Z,10.00
2017-11-05T12:29:00.706Z,10.00
2017-11-05T12:31:28.260Z,9.80
2017-11-05T12:33:55.804Z,9.80
2017-11-05T12:36:23.343Z,10.00
2017-11-05T12:38:50.896Z,10.20
2017-11-05T12:41:18.519Z,10.10
2017-11-05T12:43:46.118Z,10.10
2017-11-05T12:46:13.737Z,10.30
2017-11-05T12:48:42.199Z,10.10
2017-11-05T12:51:09.737Z,10.00
2017-11-05T12:53:37.279Z,10.30
2017-11-05T12:56:04.835Z,10.40
2017-11-05T12:58:32.373Z,10.30
2017-11-05T13:00:59.923Z,10.50
2017-11-05T13:03:27.615Z,10.30
2017-11-05T13:05:55.163Z,10.30
2017-11-05T13:08:22.682Z,10.50
2017-11-05T13:10:51.023Z,10.00
2017-11-05T13:13:18.594Z,10.40
2017-11-05T13:15:46.132Z,10.20
2017-11-05T13:18:14.463Z,10.10
2017-11-05T13:20:41.993Z,10.30
2017-11-05T13:23:09.548Z,10.10
2017-11-05T13:25:37.104Z,10.20
2017-11-05T13:28:04.626Z,10.10
2017-11-05T13:30:32.144Z,9.80
2017-11-05T13:32:59.722Z,10.10
2017-11-05T13:35:27.260Z,10.10
2017-11-05T13:37:54.813Z,10.10
2017-11-05T13:40:22.363Z,9.80
2017-11-05T13:42:49.916Z,10.10
2017-11-05T13:45:17.546Z,9.80
2017-11-05T13:47:45.150Z,10.10
2017-11-05T13:50:12.822Z,9.80
2017-11-05T13:52:40.372Z,10.20
2017-11-05T13:55:07.946Z,10.10
2017-11-05T13:57:35.473Z,9.90
2017-11-05T14:00:03.012Z,9.80
2017-11-05T14:02:30.734Z,10.00
2017-11-05T14:04:58.264Z,9.80
2017-11-05T14:07:25.845Z,10.10
2017-11-05T14:09:53.419Z,10.10
2017-11-05T14:12:20.969Z,9.80
2017-11-05T14:14:49.271Z,9.90
2017-11-05T14:17:16.925Z,9.80
2017-11-05T14:19:44.527Z,10.00
2017-11-05T14:22:12.852Z,10.00
2017-11-05T14:24:40.427Z,10.00
2017-11-05T14:27:07.975Z,9.90
2017-11-05T14:29:35.508Z,10.20
2017-11-05T14:32:03.076Z,10.00
2017-11-05T14:34:31.373Z,10.00
2017-11-05T14:36:59.684Z,9.80
2017-11-05T14:39:30.809Z,9.90
2017-11-05T14:41:58.348Z,10.10
2017-11-05T14:44:25.894Z,9.80
2017-11-05T14:46:53.456Z,9.70
2017-11-05T14:49:21.009Z,9.90
2017-11-05T14:51:49.328Z,9.80
2017-11-05T14:54:16.891Z,10.00
2017-11-05T14:56:44.443Z,9.80
2017-11-05T14:59:12.036Z,9.80
2017-11-05T15:01:39.591Z,10.10
2017-11-05T15:04:07.312Z,9.70
2017-11-05T15:06:34.946Z,9.90
2017-11-05T15:09:03.317Z,10.10
2017-11-05T15:11:31.648Z,10.00
2017-11-05T15:13:59.188Z,9.90
2017-11-05T15:16:27.048Z,9.80
2017-11-05T15:18:54.599Z,10.00
2017-11-05T15:21:22.123Z,9.50
2017-11-05T15:23:49.698Z,9.70
2017-11-05T15:26:18.071Z,9.80
2017-11-05T15:28:45.647Z,9.70
2017-11-05T15:31:13.215Z,9.80
2017-11-05T15:33:40.758Z,9.50
2017-11-05T15:36:08.293Z,9.50
2017-11-05T15:38:35.851Z,9.60
2017-11-05T15:41:03.405Z,9.40
2017-11-05T15:43:30.980Z,9.50
2017-11-05T15:45:59.347Z,9.50
2017-11-05T15:48:27.648Z,9.20
2017-11-05T15:50:55.210Z,9.30
2017-11-05T15:53:22.801Z,9.20
2017-11-05T15:55:51.146Z,9.20
2017-11-05T15:58:18.713Z,9.20
2017-11-05T16:00:47.053Z,9.20
2017-11-05T16:03:14.584Z,9.20
2017-11-05T16:05:42.131Z,9.50
2017-11-05T16:08:09.687Z,9.30
2017-11-05T16:10:37.227Z,9.20
2017-11-05T16:13:04.809Z,9.30
2017-11-05T16:15:32.365Z,9.20
2017-11-05T16:17:59.903Z,8.90
2017-11-05T16:20:27.442Z,9.40
2017-11-05T16:22:54.999Z,9.10
2017-11-05T16:25:22.532Z,8.90
2017-11-05T16:27:50.084Z,8.90
2017-11-05T16:30:17.638Z,8.90
2017-11-05T16:32:45.179Z,8.90
2017-11-05T16:35:12.708Z,8.90
2017-11-05T16:37:40.270Z,8.90
2017-11-05T16:40:07.792Z,8.90
2017-11-05T16:42:35.319Z,9.10
2017-11-05T16:45:03.661Z,8.80
2017-11-05T16:47:31.203Z,9.00
2017-11-05T16:49:58.758Z,8.80
2017-11-05T16:52:26.323Z,8.90
2017-11-05T16:54:53.855Z,8.90
2017-11-05T16:57:21.383Z,9.00
2017-11-05T16:59:48.942Z,8.90
2017-11-05T17:02:16.471Z,8.90
2017-11-05T17:04:44.031Z,8.90
2017-11-05T17:07:11.623Z,9.00
2017-11-05T17:09:39.197Z,8.80
2017-11-05T17:12:06.732Z,9.10
2017-11-05T17:14:34.413Z,8.80
2017-11-05T17:17:03.639Z,8.60
2017-11-05T17:19:33.667Z,8.80
2017-11-05T17:22:01.749Z,9.00
2017-11-05T17:24:29.319Z,8.80
2017-11-05T17:26:57.717Z,8.60
2017-11-05T17:29:25.265Z,8.60
2017-11-05T17:31:52.848Z,9.00
2017-11-05T17:34:24.169Z,8.80
2017-11-05T17:36:58.269Z,8.90
2017-11-05T17:39:28.608Z,8.90
2017-11-05T17:41:56.933Z,8.60
2017-11-05T17:44:26.821Z,8.80
2017-11-05T17:46:54.587Z,8.60
2017-11-05T17:49:23.558Z,8.80
2017-11-05T17:51:51.086Z,8.60
2017-11-05T17:54:18.642Z,8.50
2017-11-05T17:56:47.760Z,8.60
2017-11-05T17:59:17.187Z,8.70
2017-11-05T18:01:44.773Z,8.70
2017-11-05T18:04:12.329Z,8.90
2017-11-05T18:06:39.876Z,8.90
2017-11-05T18:09:07.410Z,8.60
2017-11-05T18:11:34.991Z,8.60
2017-11-05T18:14:03.306Z,8.80
2017-11-05T18:16:30.985Z,8.80
2017-11-05T18:18:58.771Z,8.80
2017-11-05T18:21:26.374Z,8.90
2017-11-05T18:23:54.081Z,8.90
2017-11-05T18:26:23.103Z,8.80
2017-11-05T18:28:50.827Z,9.00
2017-11-05T18:31:18.529Z,8.70
2017-11-05T18:33:46.391Z,8.60
2017-11-05T18:36:14.286Z,8.80
2017-11-05T18:38:42.104Z,8.70
2017-11-05T18:41:09.811Z,8.80
2017-11-05T18:43:38.566Z,8.90
2017-11-05T18:46:06.262Z,8.90
2017-11-05T18:48:34.041Z,8.90
2017-11-05T18:51:01.748Z,8.60
2017-11-05T18:53:30.209Z,9.10
2017-11-05T18:55:58.580Z,8.90
2017-11-05T18:58:26.881Z,9.00
2017-11-05T19:00:54.520Z,8.80
2017-11-05T19:03:22.112Z,9.00
2017-11-05T19:05:50.441Z,8.50
2017-11-05T19:08:18.113Z,8.80
2017-11-05T19:10:45.804Z,8.60
2017-11-05T19:13:13.342Z,8.80
2017-11-05T19:15:41.375Z,8.60
2017-11-05T19:18:09.019Z,8.50
2017-11-05T19:20:37.334Z,8.50
2017-11-05T19:23:04.876Z,8.50
2017-11-05T19:25:32.456Z,8.80
2017-11-05T19:28:00.017Z,8.70
2017-11-05T19:30:28.326Z,8.60
2017-11-05T19:32:57.150Z,8.30
2017-11-05T19:35:25.498Z,8.20
2017-11-05T19:37:53.135Z,8.30
2017-11-05T19:40:20.747Z,8.50
2017-11-05T19:42:49.176Z,8.20
2017-11-05T19:45:17.477Z,8.30
2017-11-05T19:47:45.033Z,8.60
2017-11-05T19:50:12.620Z,8.30
2017-11-05T19:52:40.166Z,8.30
2017-11-05T19:55:07.844Z,8.50
2017-11-05T19:57:35.455Z,8.40
2017-11-05T20:00:03.027Z,8.30
2017-11-05T20:02:30.679Z,8.40
2017-11-05T20:04:58.226Z,8.20
2017-11-05T20:07:25.759Z,8.30
2017-11-05T20:09:54.137Z,8.40
2017-11-05T20:12:21.690Z,8.30
2017-11-05T20:14:49.223Z,8.20
2017-11-05T20:17:16.775Z,8.30
2017-11-05T20:19:44.294Z,8.30
2017-11-05T20:22:13.645Z,8.30
2017-11-05T20:24:41.448Z,8.30
2017-11-05T20:27:08.990Z,8.20
2017-11-05T20:29:36.631Z,8.50
2017-11-05T20:32:05.003Z,8.20
2017-11-05T20:34:32.546Z,8.20
2017-11-05T20:37:00.078Z,8.30
2017-11-05T20:39:28.392Z,8.30
2017-11-05T20:41:55.912Z,8.20
2017-11-05T20:44:23.444Z,8.20
2017-11-05T20:46:51.941Z,8.30
2017-11-05T20:49:21.806Z,8.30
2017-11-05T20:51:49.366Z,8.10
2017-11-05T20:54:16.941Z,8.20
2017-11-05T20:56:44.480Z,8.30
2017-11-05T20:59:12.005Z,8.00
2017-11-05T21:01:39.556Z,7.90
2017-11-05T21:04:07.265Z,7.90
2017-11-05T21:06:34.818Z,8.20
2017-11-05T21:09:02.371Z,8.20
2017-11-05T21:11:29.918Z,8.00
2017-11-05T21:13:57.447Z,8.10
2017-11-05T21:16:25.772Z,8.20
2017-11-05T21:18:53.617Z,8.00
2017-11-05T21:21:21.174Z,8.20
2017-11-05T21:23:48.736Z,8.00
2017-11-05T21:26:16.308Z,8.00
2017-11-05T21:28:43.892Z,8.10
2017-11-05T21:31:11.461Z,8.00
2017-11-05T21:33:39.012Z,8.20
2017-11-05T21:36:07.508Z,8.10
2017-11-05T21:38:35.079Z,8.00
2017-11-05T21:41:02.609Z,8.20
2017-11-05T21:43:31.160Z,8.10
2017-11-05T21:45:59.604Z,8.10
2017-11-05T21:48:27.918Z,8.00
2017-11-05T21:50:55.456Z,8.00
2017-11-05T21:53:23.032Z,8.00
2017-11-05T21:55:50.588Z,8.10
2017-11-05T21:58:18.139Z,7.90
2017-11-05T22:00:45.699Z,8.10
2017-11-05T22:03:14.017Z,8.10
2017-11-05T22:05:41.546Z,8.10
2017-11-05T22:08:09.874Z,8.00
2017-11-05T22:10:38.163Z,8.10
2017-11-05T22:13:05.700Z,8.20
2017-11-05T22:15:33.254Z,7.90
2017-11-05T22:18:00.796Z,8.00
2017-11-05T22:20:28.345Z,8.00
2017-11-05T22:22:55.901Z,7.80
2017-11-05T22:25:23.460Z,8.10
2017-11-05T22:27:51.991Z,7.90
2017-11-05T22:30:19.595Z,8.10
2017-11-05T22:32:47.126Z,7.80
2017-11-05T22:35:14.650Z,8.00
2017-11-05T22:37:42.887Z,7.90
2017-11-05T22:40:10.411Z,8.10
2017-11-05T22:42:38.722Z,7.90
2017-11-05T22:45:06.262Z,7.90
2017-11-05T22:47:33.790Z,7.70
2017-11-05T22:50:01.317Z,7.70
2017-11-05T22:52:32.232Z,7.70
2017-11-05T22:54:59.785Z,7.70
2017-11-05T22:57:27.343Z,7.90
2017-11-05T22:59:54.898Z,7.80
2017-11-05T23:02:22.420Z,7.70
2017-11-05T23:04:49.953Z,8.00
2017-11-05T23:07:18.262Z,7.60
2017-11-05T23:09:45.784Z,7.90
2017-11-05T23:12:13.308Z,7.90
2017-11-05T23:14:40.863Z,8.00
2017-11-05T23:17:08.434Z,7.70
2017-11-05T23:19:35.969Z,8.00
2017-11-05T23:22:04.278Z,7.70
2017-11-05T23:24:31.787Z,7.50
2017-11-05T23:26:59.336Z,7.60
2017-11-05T23:29:26.900Z,7.70
2017-11-05T23:31:54.419Z,7.90
2017-11-05T23:34:21.948Z,7.60
2017-11-05T23:36:49.510Z,7.70
2017-11-05T23:39:17.032Z,7.70
2017-11-05T23:41:44.560Z,7.70
2017-11-05T23:44:12.108Z,7.60
2017-11-05T23:46:39.645Z,7.60
2017-11-05T23:49:07.173Z,7.70
2017-11-05T23:51:34.719Z,7.50
2017-11-05T23:54:02.235Z,7.50
2017-11-05T23:56:29.764Z,7.40
2017-11-05T23:58:57.322Z,7.30
